createdAt,value
2019-03-09T01:20:35.496Z,38.30
2019-03-09T01:23:04.028Z,41.30
2019-03-09T01:25:32.476Z,41.40
2019-03-09T01:28:00.991Z,41.30
2019-03-09T01:30:29.458Z,40.60
2019-03-09T01:32:57.943Z,41.50
2019-03-09T01:35:26.613Z,40.60
2019-03-09T01:37:55.280Z,40.30
2019-03-09T01:40:23.829Z,40.40
2019-03-09T01:42:52.322Z,40.00
2019-03-09T01:45:20.922Z,39.80
2019-03-09T01:47:49.412Z,39.80
2019-03-09T01:50:17.936Z,39.90
2019-03-09T01:52:46.483Z,39.70
2019-03-09T01:55:14.989Z,40.00
2019-03-09T01:57:43.466Z,39.80
2019-03-09T02:00:17.075Z,39.60
2019-03-09T02:02:45.673Z,39.70
2019-03-09T02:05:14.903Z,39.80
2019-03-09T02:07:43.400Z,40.00
2019-03-09T02:10:13.987Z,40.10
2019-03-09T02:12:42.599Z,40.10
2019-03-09T02:15:15.619Z,40.30
2019-03-09T02:17:44.090Z,40.50
2019-03-09T02:20:16.681Z,40.50
2019-03-09T02:22:45.151Z,40.50
2019-03-09T02:25:13.856Z,40.00
2019-03-09T02:27:42.389Z,40.30
2019-03-09T02:30:16.892Z,40.50
2019-03-09T02:32:45.414Z,40.30
2019-03-09T02:35:17.711Z,40.30
2019-03-09T02:37:47.318Z,40.50
2019-03-09T02:40:22.799Z,40.50
2019-03-09T02:42:50.566Z,40.50
2019-03-09T02:45:27.338Z,40.50
2019-03-09T02:47:55.894Z,40.40
2019-03-09T02:50:24.594Z,40.50
2019-03-09T02:52:53.127Z,40.50
2019-03-09T02:55:21.609Z,41.20
2019-03-09T02:57:50.093Z,40.60
2019-03-09T03:00:19.995Z,40.60
2019-03-09T03:02:55.617Z,40.60
2019-03-09T03:05:24.081Z,40.60
2019-03-09T03:07:52.545Z,40.70
2019-03-09T03:10:21.107Z,40.70
2019-03-09T03:12:49.584Z,40.70
2019-03-09T17:27:48.557Z,36.20
2019-03-09T19:19:38.496Z,42.10
2019-03-09T19:22:07.038Z,38.00
2019-03-09T19:24:35.529Z,37.10
2019-03-09T19:27:04.514Z,37.10
2019-03-09T19:29:32.996Z,37.40
2019-03-09T19:32:01.580Z,37.90
2019-03-09T19:34:51.337Z,37.70
2019-03-09T19:37:19.810Z,38.20
2019-03-09T19:39:48.630Z,37.50
2019-03-09T19:42:17.555Z,37.50
2019-03-09T19:44:46.404Z,37.50
2019-03-09T19:47:15.017Z,37.30
2019-03-09T19:49:43.491Z,37.50
2019-03-09T19:52:12.081Z,37.50
2019-03-09T19:54:40.548Z,37.50
2019-03-09T19:57:09.066Z,37.70
2019-03-09T19:59:37.620Z,37.80
2019-03-09T20:02:06.419Z,37.90
2019-03-09T20:04:34.987Z,38.10
2019-03-09T20:07:03.970Z,38.20
2019-03-09T20:09:32.487Z,38.30
2019-03-09T20:12:00.961Z,38.40
2019-03-09T20:14:29.512Z,38.40
2019-03-09T20:16:58.257Z,39.20
2019-03-09T20:19:26.895Z,39.00
2019-03-09T20:21:55.442Z,38.40
2019-03-09T20:24:24.370Z,38.00
2019-03-09T20:26:52.831Z,37.50
2019-03-09T20:29:21.338Z,38.10
2019-03-09T20:31:49.808Z,39.00
2019-03-09T20:34:18.343Z,38.40
2019-03-09T20:36:46.870Z,38.60
2019-03-09T20:39:15.336Z,39.70
2019-03-09T20:41:44.014Z,36.30
2019-03-09T20:44:12.592Z,35.80
2019-03-09T20:46:42.214Z,35.70
2019-03-09T20:49:11.088Z,36.00
2019-03-09T20:51:39.585Z,36.20
2019-03-09T20:54:08.173Z,36.50
2019-03-09T20:56:36.678Z,36.90
2019-03-09T20:59:05.196Z,37.70
2019-03-09T21:01:34.229Z,37.50
2019-03-09T21:04:02.801Z,37.60
2019-03-09T21:06:31.418Z,38.70
2019-03-09T21:08:59.908Z,38.40
2019-03-09T21:11:29.232Z,39.10
2019-03-09T21:13:58.103Z,39.10
2019-03-09T21:16:28.894Z,38.40
2019-03-09T21:18:56.786Z,38.30
2019-03-09T21:21:25.772Z,38.50
2019-03-09T21:23:54.256Z,38.60
2019-03-09T21:26:22.747Z,38.70
2019-03-09T21:28:51.259Z,39.00
2019-03-09T21:31:19.723Z,39.00
2019-03-09T21:33:48.272Z,39.20
2019-03-09T21:36:16.856Z,39.20
2019-03-09T21:38:45.431Z,39.50
2019-03-09T21:41:13.950Z,39.70
2019-03-09T21:43:43.044Z,39.90
2019-03-09T21:46:11.560Z,39.30
2019-03-09T21:48:40.599Z,38.30
2019-03-09T21:51:09.197Z,38.60
2019-03-09T21:53:37.723Z,38.40
2019-03-09T21:56:06.200Z,38.30
2019-03-09T21:58:34.690Z,37.90
2019-03-09T22:01:03.267Z,37.30
2019-03-09T22:03:31.796Z,37.10
2019-03-09T22:06:05.935Z,37.10
2019-03-09T22:08:30.451Z,37.20
2019-03-09T22:10:58.952Z,37.20
2019-03-09T22:13:27.451Z,36.30
2019-03-09T22:15:55.947Z,36.30
2019-03-09T22:18:24.434Z,36.10
2019-03-09T22:20:52.954Z,36.00
2019-03-09T22:23:21.439Z,35.70
2019-03-09T22:25:49.964Z,35.70
2019-03-09T22:28:18.528Z,36.10
2019-03-09T22:30:47.129Z,35.50
2019-03-09T22:33:15.610Z,35.20
2019-03-09T22:35:44.211Z,35.40
2019-03-09T22:38:14.943Z,35.30
2019-03-09T22:40:42.875Z,35.20
2019-03-09T22:43:11.349Z,35.20
2019-03-09T22:45:39.923Z,35.20
2019-03-09T22:48:08.468Z,35.20
2019-03-09T22:50:36.994Z,35.10
2019-03-09T22:53:05.531Z,35.20
2019-03-09T22:55:34.052Z,35.00
2019-03-09T22:58:02.593Z,35.00
2019-03-09T23:00:31.577Z,34.80
2019-03-09T23:03:00.107Z,34.70
2019-03-09T23:05:28.579Z,34.80
2019-03-09T23:07:57.092Z,34.60
2019-03-09T23:10:27.206Z,34.50
2019-03-09T23:12:55.679Z,34.40
2019-03-09T23:15:24.224Z,34.30
2019-03-09T23:17:52.811Z,34.20
2019-03-09T23:20:21.343Z,34.10
2019-03-09T23:22:49.804Z,34.00
2019-03-09T23:25:18.327Z,33.80
2019-03-09T23:27:46.798Z,33.80
2019-03-09T23:30:20.827Z,34.50
2019-03-09T23:32:49.297Z,34.70
2019-03-09T23:35:18.009Z,36.40
2019-03-09T23:37:47.316Z,37.60
2019-03-09T23:40:21.245Z,39.00
2019-03-09T23:42:49.801Z,39.80
2019-03-09T23:45:20.973Z,40.00
2019-03-09T23:47:50.546Z,40.10
2019-03-09T23:50:19.054Z,40.40
2019-03-09T23:52:47.648Z,40.60
2019-03-09T23:55:21.842Z,40.50
2019-03-09T23:57:46.945Z,40.40
